Time;durP1;ratioP1;P1;durP2;ratioP2;P2;SDS_P1;SDS_P2;PMS_P1;PMS_P2;Temp;Humidity;BMP_temperature;BMP_pressure;BME280_temperature;BME280_humidity;BME280_pressure;Samples;Min_cycle;Max_cycle;Signal;HPM_P1;HPM_P2
2022/05/15 00:02:35;;;;;;;19.75;4.50;;;14.30;99.90;;;;;;5042190;28;20098;-36
2022/05/15 00:05:00;;;;;;;17.00;3.65;;;14.30;99.90;;;;;;5055762;28;20425;-37
2022/05/15 00:07:26;;;;;;;21.65;4.15;;;14.20;99.90;;;;;;5045507;28;20017;-37
2022/05/15 00:09:52;;;;;;;22.63;4.35;;;14.20;99.90;;;;;;5042337;28;20034;-38
2022/05/15 00:12:20;;;;;;;12.30;3.85;;;14.20;99.90;;;;;;5035145;28;20018;-40
2022/05/15 00:14:46;;;;;;;;;;;14.20;99.90;;;;;;5042233;28;20100;-38
2022/05/15 00:17:12;;;;;;;24.70;4.63;;;14.10;99.90;;;;;;5043304;28;20385;-37
2022/05/15 00:19:38;;;;;;;29.33;3.95;;;14.10;99.90;;;;;;5053940;28;20032;-38
2022/05/15 00:22:03;;;;;;;17.52;4.38;;;14.10;99.90;;;;;;5041936;28;20029;-38
2022/05/15 00:24:29;;;;;;;20.25;3.92;;;14.00;99.90;;;;;;5046481;28;20433;-37
2022/05/15 00:26:56;;;;;;;13.00;4.10;;;14.00;99.90;;;;;;5036041;28;20543;-38
2022/05/15 00:29:21;;;;;;;21.98;4.22;;;14.00;99.90;;;;;;5035217;28;20083;-37
2022/05/15 00:31:47;;;;;;;19.05;4.47;;;13.90;99.90;;;;;;5044635;28;20021;-37
2022/05/15 00:34:13;;;;;;;10.15;3.45;;;13.90;99.90;;;;;;5045327;28;20579;-30
2022/05/15 00:36:39;;;;;;;17.25;4.22;;;13.90;99.90;;;;;;5052813;28;20029;-34
2022/05/15 00:39:06;;;;;;;16.23;3.63;;;13.80;99.90;;;;;;5054947;28;20033;-37
2022/05/15 00:41:32;;;;;;;18.80;4.40;;;13.80;99.90;;;;;;5043251;28;20033;-38
2022/05/15 00:44:00;;;;;;;25.53;4.03;;;13.70;99.90;;;;;;5039938;28;20071;-29
2022/05/15 00:46:31;;;;;;;24.67;4.88;;;13.70;99.90;;;;;;5035229;28;20445;-33
2022/05/15 00:48:59;;;;;;;25.35;4.00;;;13.70;99.90;;;;;;5034715;28;20532;-30
2022/05/15 00:51:43;;;;;;;;;;;13.70;99.90;;;;;;5047553;28;20044;-30
2022/05/15 00:54:37;;;;;;;14.98;4.30;;;13.60;99.90;;;;;;5036770;28;19909;-30
2022/05/15 00:57:26;;;;;;;16.58;4.70;;;13.60;99.90;;;;;;5034941;28;20060;-35
2022/05/15 00:59:58;;;;;;;23.42;4.57;;;13.60;99.90;;;;;;5034481;28;20509;-32
2022/05/15 01:02:27;;;;;;;16.40;4.70;;;13.50;99.90;;;;;;5037591;28;20167;-29
2022/05/15 01:04:53;;;;;;;23.65;4.85;;;13.50;99.90;;;;;;5050273;28;20060;-36
2022/05/15 01:07:19;;;;;;;12.48;3.53;;;13.50;99.90;;;;;;5047933;28;20056;-33
2022/05/15 01:09:45;;;;;;;16.05;4.68;;;13.40;99.90;;;;;;5053530;28;20028;-31
2022/05/15 01:12:12;;;;;;;19.80;4.70;;;13.40;99.90;;;;;;5042789;28;20048;-32
2022/05/15 01:14:44;;;;;;;17.23;3.22;;;13.30;99.90;;;;;;5046131;28;20483;-29
2022/05/15 01:17:09;;;;;;;14.18;3.38;;;13.30;99.90;;;;;;5052397;28;20029;-38
2022/05/15 01:19:38;;;;;;;21.40;3.88;;;13.30;99.90;;;;;;5052034;28;20450;-37
2022/05/15 01:22:05;;;;;;;11.70;3.58;;;13.30;99.90;;;;;;5036220;28;20496;-37
2022/05/15 01:24:31;;;;;;;9.63;3.80;;;13.20;99.90;;;;;;5051577;28;20551;-37
2022/05/15 01:27:03;;;;;;;18.05;4.00;;;13.20;99.90;;;;;;5044502;28;20041;-38
2022/05/15 01:29:30;;;;;;;13.90;3.63;;;13.10;99.90;;;;;;5053490;28;20029;-42
2022/05/15 01:31:57;;;;;;;20.10;5.80;;;13.10;99.90;;;;;;5052297;28;20395;-37
2022/05/15 01:34:23;;;;;;;20.50;4.00;;;13.10;99.90;;;;;;5040090;28;20056;-41
2022/05/15 01:36:49;;;;;;;20.17;4.13;;;13.10;99.90;;;;;;5034771;28;20473;-36
2022/05/15 01:39:16;;;;;;;20.55;4.35;;;13.00;99.90;;;;;;5051460;28;20154;-38
2022/05/15 01:41:41;;;;;;;15.65;4.38;;;13.00;99.90;;;;;;5048460;28;20029;-37
2022/05/15 01:44:07;;;;;;;18.08;4.10;;;13.00;99.90;;;;;;5033339;28;20031;-37
2022/05/15 01:46:32;;;;;;;19.58;3.55;;;13.00;99.90;;;;;;5037203;28;20465;-37
2022/05/15 01:48:59;;;;;;;12.88;4.25;;;12.90;99.90;;;;;;5053656;28;20079;-37
2022/05/15 01:51:25;;;;;;;26.75;4.28;;;12.90;99.90;;;;;;5046462;28;20362;-36
2022/05/15 01:53:51;;;;;;;13.27;4.18;;;12.90;99.90;;;;;;5033031;28;20041;-36
2022/05/15 01:56:18;;;;;;;18.25;3.58;;;12.90;99.90;;;;;;5033672;28;20037;-38
2022/05/15 01:58:43;;;;;;;12.73;3.35;;;12.90;99.90;;;;;;5040077;28;20381;-38
2022/05/15 02:01:09;;;;;;;16.80;3.38;;;12.90;99.90;;;;;;5039794;28;20020;-33
2022/05/15 02:03:35;;;;;;;22.10;3.53;;;12.80;99.90;;;;;;5034482;28;20030;-31
2022/05/15 02:06:01;;;;;;;26.30;3.85;;;12.70;99.90;;;;;;5049469;28;20033;-32
2022/05/15 02:08:33;;;;;;;24.73;4.22;;;12.60;99.90;;;;;;5052087;28;20525;-29
2022/05/15 02:10:59;;;;;;;16.70;3.47;;;12.70;99.90;;;;;;5050306;28;20051;-31
2022/05/15 02:13:25;;;;;;;17.00;3.70;;;12.70;99.90;;;;;;5037604;28;20032;-36
2022/05/15 02:15:51;;;;;;;12.20;3.28;;;12.70;99.90;;;;;;5033829;28;20021;-35
2022/05/15 02:18:17;;;;;;;16.05;3.83;;;12.70;99.90;;;;;;5033995;28;20566;-38
2022/05/15 02:20:42;;;;;;;17.40;3.80;;;12.60;99.90;;;;;;5033278;28;20112;-38
2022/05/15 02:23:08;;;;;;;11.30;3.47;;;12.60;99.90;;;;;;5042798;28;20492;-37
2022/05/15 02:25:35;;;;;;;27.08;4.75;;;12.60;99.90;;;;;;5051915;28;20026;-31
2022/05/15 02:28:01;;;;;;;11.38;3.72;;;12.50;99.90;;;;;;5033707;28;20044;-36
2022/05/15 02:30:27;;;;;;;16.60;3.97;;;12.50;99.90;;;;;;5053108;28;20025;-37
2022/05/15 02:32:52;;;;;;;22.67;5.05;;;12.50;99.90;;;;;;5052075;28;20404;-37
2022/05/15 02:35:18;;;;;;;24.13;4.00;;;12.50;99.90;;;;;;5037609;28;20028;-36
2022/05/15 02:37:47;;;;;;;18.75;4.25;;;12.50;99.90;;;;;;5044598;28;20100;-38
2022/05/15 02:40:13;;;;;;;17.83;4.35;;;12.50;99.90;;;;;;5050977;28;20032;-38
2022/05/15 02:42:39;;;;;;;13.10;3.47;;;12.50;99.90;;;;;;5039271;28;20025;-38
2022/05/15 02:45:05;;;;;;;19.00;3.88;;;12.50;99.90;;;;;;5032910;28;20028;-44
2022/05/15 02:47:32;;;;;;;24.45;3.90;;;12.50;99.90;;;;;;5033028;28;20151;-36
2022/05/15 02:52:42;;;;;;;14.65;3.17;;;12.50;99.90;;;;;;5043338;28;20036;-36
2022/05/15 02:55:08;;;;;;;14.70;3.75;;;12.40;99.90;;;;;;5037687;28;20155;-36
2022/05/15 02:57:33;;;;;;;14.07;3.60;;;12.40;99.90;;;;;;5032945;28;20108;-36
2022/05/15 02:59:59;;;;;;;11.75;3.55;;;12.30;99.90;;;;;;5035237;28;20569;-38
2022/05/15 03:02:25;;;;;;;18.33;3.33;;;12.30;99.90;;;;;;5050603;28;20508;-40
2022/05/15 03:04:51;;;;;;;18.83;4.28;;;12.30;99.90;;;;;;5047149;28;20175;-38
2022/05/15 03:07:18;;;;;;;18.98;4.03;;;12.20;99.90;;;;;;5036768;28;20139;-35
2022/05/15 03:09:43;;;;;;;15.90;4.65;;;12.20;99.90;;;;;;5043900;28;20103;-37
2022/05/15 03:12:09;;;;;;;18.27;4.35;;;12.20;99.90;;;;;;5042386;28;20032;-37
2022/05/15 03:14:35;;;;;;;16.67;3.15;;;12.20;99.90;;;;;;5056650;28;20040;-38
2022/05/15 03:17:00;;;;;;;14.57;3.42;;;12.20;99.90;;;;;;5038569;28;20025;-37
2022/05/15 03:19:26;;;;;;;21.30;3.97;;;12.20;99.90;;;;;;5036545;28;20036;-36
2022/05/15 03:21:52;;;;;;;14.68;3.70;;;12.10;99.90;;;;;;5038966;28;20041;-37
2022/05/15 03:24:18;;;;;;;10.75;4.43;;;12.10;99.90;;;;;;5036981;28;20481;-37
2022/05/15 03:26:46;;;;;;;15.10;4.40;;;12.10;99.90;;;;;;5036966;28;20022;-38
2022/05/15 03:29:12;;;;;;;;;;;12.10;99.90;;;;;;5036881;28;20091;-46
2022/05/15 03:31:39;;;;;;;13.98;3.53;;;12.00;99.90;;;;;;5039687;28;19908;-38
2022/05/15 03:34:12;;;;;;;15.32;4.47;;;12.00;99.90;;;;;;5051549;28;20431;-41
2022/05/15 03:36:42;;;;;;;15.82;4.57;;;12.00;99.90;;;;;;5044517;28;20029;-37
2022/05/15 03:39:08;;;;;;;16.35;3.80;;;12.00;99.90;;;;;;5037068;28;20037;-38
2022/05/15 03:41:34;;;;;;;16.80;4.40;;;12.00;99.90;;;;;;5036034;28;20033;-37
2022/05/15 03:44:00;;;;;;;19.35;4.05;;;12.00;99.90;;;;;;5036087;28;20523;-37
2022/05/15 03:46:26;;;;;;;23.55;3.92;;;11.90;99.90;;;;;;5037133;28;20108;-37
2022/05/15 03:48:52;;;;;;;12.18;3.45;;;11.90;99.90;;;;;;5054345;28;20112;-34
2022/05/15 03:51:18;;;;;;;21.77;3.85;;;11.90;99.90;;;;;;5050263;28;20128;-31
2022/05/15 03:53:43;;;;;;;20.60;3.70;;;11.90;99.90;;;;;;5035821;28;20066;-31
2022/05/15 03:56:10;;;;;;;19.45;4.40;;;11.90;99.90;;;;;;5038767;28;20020;-34
2022/05/15 03:58:37;;;;;;;16.33;4.03;;;11.90;99.90;;;;;;5055744;28;20475;-28
2022/05/15 04:01:04;;;;;;;26.25;4.22;;;11.90;99.90;;;;;;5042879;28;20029;-56
2022/05/15 04:03:30;;;;;;;26.63;3.60;;;11.90;99.90;;;;;;5035903;28;20390;-36
2022/05/15 04:05:56;;;;;;;13.95;4.28;;;11.90;99.90;;;;;;5038521;28;20041;-36
2022/05/15 04:08:21;;;;;;;8.55;3.25;;;11.90;99.90;;;;;;5042175;28;20029;-36
2022/05/15 04:10:47;;;;;;;15.73;3.75;;;11.90;99.90;;;;;;5035307;28;20048;-37
2022/05/15 04:13:13;;;;;;;22.95;3.78;;;11.90;99.90;;;;;;5035015;28;20105;-33
2022/05/15 04:15:39;;;;;;;22.48;4.43;;;11.90;99.90;;;;;;5034238;28;20021;-33
2022/05/15 04:18:05;;;;;;;14.55;3.92;;;11.90;99.90;;;;;;5050502;28;20029;-54
2022/05/15 04:20:32;;;;;;;11.43;4.43;;;11.90;99.90;;;;;;5049743;28;20022;-31
2022/05/15 04:22:58;;;;;;;16.23;3.55;;;11.90;99.90;;;;;;5034889;28;20029;-28
2022/05/15 04:25:24;;;;;;;14.13;3.67;;;11.90;99.90;;;;;;5055175;28;20025;-30
2022/05/15 04:27:51;;;;;;;11.75;3.65;;;11.90;99.90;;;;;;5050097;28;20075;-37
2022/05/15 04:30:20;;;;;;;18.50;4.13;;;11.90;99.90;;;;;;5055138;28;20049;-37
2022/05/15 04:32:46;;;;;;;18.17;4.88;;;11.90;99.90;;;;;;5035202;28;20029;-37
2022/05/15 04:35:15;;;;;;;14.15;4.22;;;11.90;99.90;;;;;;5033419;28;20464;-37
2022/05/15 04:37:40;;;;;;;27.17;4.32;;;11.90;99.90;;;;;;5034791;28;20026;-38
2022/05/15 04:40:08;;;;;;;15.00;3.42;;;12.00;99.90;;;;;;5040888;28;20047;-37
2022/05/15 04:42:34;;;;;;;;;;;12.00;99.90;;;;;;5044539;28;20032;-37
2022/05/15 04:44:59;;;;;;;26.02;3.40;;;12.10;99.90;;;;;;5042643;28;19913;-38
2022/05/15 04:47:25;;;;;;;10.68;3.53;;;12.00;99.90;;;;;;5044209;28;20028;-36
2022/05/15 04:49:51;;;;;;;17.05;4.55;;;12.10;99.90;;;;;;5049186;28;20021;-36
2022/05/15 04:52:17;;;;;;;24.83;4.32;;;12.10;99.90;;;;;;5035560;28;20064;-38
2022/05/15 04:54:43;;;;;;;25.55;4.03;;;12.10;99.90;;;;;;5052752;28;20500;-38
2022/05/15 04:57:09;;;;;;;23.70;4.07;;;12.20;99.90;;;;;;5053159;28;20028;-38
2022/05/15 04:59:35;;;;;;;17.50;4.00;;;12.20;99.90;;;;;;5054564;28;20473;-35
2022/05/15 05:02:01;;;;;;;11.77;3.63;;;12.30;99.90;;;;;;5044804;28;20717;-28
2022/05/15 05:04:27;;;;;;;22.17;3.60;;;12.30;99.90;;;;;;5034441;28;20037;-31
2022/05/15 05:06:53;;;;;;;20.58;3.50;;;12.40;99.90;;;;;;5045530;28;20029;-29
2022/05/15 05:09:19;;;;;;;19.52;3.95;;;12.40;99.90;;;;;;5036696;28;20049;-31
2022/05/15 05:11:44;;;;;;;19.27;3.95;;;12.50;99.90;;;;;;5040846;28;20033;-30
2022/05/15 05:14:10;;;;;;;16.40;3.78;;;12.50;99.90;;;;;;5034496;28;20028;-47
2022/05/15 05:16:35;;;;;;;15.30;3.58;;;12.70;99.90;;;;;;5040931;28;20033;-35
2022/05/15 05:19:02;;;;;;;11.70;3.78;;;12.70;99.90;;;;;;5054251;28;20037;-46
2022/05/15 05:21:28;;;;;;;11.57;3.07;;;12.80;99.90;;;;;;5054254;28;20033;-38
2022/05/15 05:23:54;;;;;;;13.20;3.42;;;12.80;99.90;;;;;;5048542;28;20054;-36
2022/05/15 05:26:19;;;;;;;8.30;3.22;;;12.90;99.90;;;;;;5032860;28;20061;-29
2022/05/15 05:28:46;;;;;;;24.75;4.10;;;13.00;99.90;;;;;;5045134;28;20509;-32
2022/05/15 05:31:12;;;;;;;15.80;3.95;;;13.10;99.90;;;;;;5052145;28;20025;-30
2022/05/15 05:33:37;;;;;;;15.48;3.63;;;13.10;99.90;;;;;;5047470;28;20047;-36
2022/05/15 05:36:04;;;;;;;17.40;3.20;;;13.20;99.90;;;;;;5037560;28;20037;-36
2022/05/15 05:38:30;;;;;;;17.90;3.92;;;13.30;99.90;;;;;;5039308;28;20025;-40
2022/05/15 05:40:55;;;;;;;17.10;4.53;;;13.30;99.90;;;;;;5033846;28;20030;-39
2022/05/15 05:43:21;;;;;;;14.85;4.85;;;13.40;99.90;;;;;;5048128;28;20132;-32
2022/05/15 05:45:46;;;;;;;24.13;3.55;;;13.50;99.90;;;;;;5052527;28;20363;-32
2022/05/15 05:48:12;;;;;;;14.80;3.50;;;13.60;99.90;;;;;;5053375;28;20079;-32
2022/05/15 05:50:38;;;;;;;15.40;3.75;;;13.70;99.90;;;;;;5051416;28;20021;-36
2022/05/15 05:53:04;;;;;;;18.65;4.10;;;13.80;99.90;;;;;;5033220;28;20040;-34
2022/05/15 05:55:30;;;;;;;22.58;5.50;;;14.00;99.90;;;;;;5033567;28;20068;-34
2022/05/15 05:57:56;;;;;;;27.30;4.82;;;14.10;99.90;;;;;;5033710;28;20390;-32
2022/05/15 06:00:26;;;;;;;13.68;3.97;;;14.20;99.90;;;;;;5031579;28;20048;-34
2022/05/15 06:02:52;;;;;;;16.92;4.05;;;14.40;99.90;;;;;;5033292;28;20033;-30
2022/05/15 06:05:18;;;;;;;19.05;3.78;;;14.80;99.90;;;;;;5033176;28;20033;-35
2022/05/15 06:07:44;;;;;;;15.65;4.28;;;15.20;99.90;;;;;;5032988;28;20503;-30
2022/05/15 06:10:12;;;;;;;17.70;3.13;;;16.00;99.90;;;;;;5033492;28;20034;-29
2022/05/15 06:12:40;;;;;;;17.08;4.07;;;16.40;99.90;;;;;;5033606;28;20022;-38
2022/05/15 06:15:08;;;;;;;19.05;3.33;;;16.50;99.90;;;;;;5038072;28;20095;-36
2022/05/15 06:17:34;;;;;;;15.75;3.08;;;17.70;99.90;;;;;;5041985;28;20021;-37
2022/05/15 06:20:05;;;;;;;16.30;3.70;;;18.60;99.90;;;;;;5036494;28;20447;-36
2022/05/15 06:22:30;;;;;;;13.20;3.20;;;18.90;99.90;;;;;;5034453;28;20033;-37
2022/05/15 06:24:56;;;;;;;12.02;3.25;;;19.70;99.90;;;;;;5034950;28;20535;-31
2022/05/15 06:27:21;;;;;;;16.98;4.13;;;21.30;99.90;;;;;;5039809;28;20049;-36
2022/05/15 06:29:47;;;;;;;12.73;3.35;;;22.50;99.00;;;;;;5052180;28;20028;-30
2022/05/15 06:32:12;;;;;;;12.63;3.05;;;23.30;97.40;;;;;;5038350;28;20037;-37
2022/05/15 06:34:38;;;;;;;17.48;3.97;;;23.90;96.40;;;;;;5039089;28;20032;-38
2022/05/15 06:37:04;;;;;;;11.75;4.55;;;24.20;96.00;;;;;;5038421;28;20033;-62
2022/05/15 06:39:31;;;;;;;13.70;3.60;;;24.40;95.80;;;;;;5047459;28;20437;-38
2022/05/15 06:41:59;;;;;;;8.10;2.00;;;24.40;95.60;;;;;;5053187;28;20029;-38
2022/05/15 06:44:25;;;;;;;21.15;3.97;;;24.20;95.40;;;;;;5040981;28;20024;-32
2022/05/15 06:46:50;;;;;;;17.55;3.58;;;23.70;95.90;;;;;;5039234;28;20029;-38
2022/05/15 06:49:16;;;;;;;10.32;3.60;;;23.40;96.00;;;;;;5034506;28;20033;-34
2022/05/15 06:51:43;;;;;;;10.70;2.92;;;23.50;96.10;;;;;;5034015;28;20037;-38
2022/05/15 06:54:09;;;;;;;15.20;3.33;;;23.90;95.80;;;;;;5035466;28;20026;-37
2022/05/15 06:59:18;;;;;;;8.65;3.17;;;24.20;95.30;;;;;;5032858;28;20086;-37
2022/05/15 07:01:44;;;;;;;14.93;3.35;;;24.00;95.50;;;;;;5033592;28;20029;-37
2022/05/15 07:04:10;;;;;;;21.30;3.97;;;23.70;95.90;;;;;;5032548;28;20034;-36
2022/05/15 07:06:35;;;;;;;12.45;4.05;;;23.80;95.50;;;;;;5034864;28;20025;-36
2022/05/15 07:09:01;;;;;;;13.57;3.30;;;24.00;94.90;;;;;;5037435;28;20026;-46
2022/05/15 07:11:27;;;;;;;9.45;3.53;;;23.90;95.00;;;;;;5036346;28;20473;-42
2022/05/15 07:13:53;;;;;;;18.55;3.67;;;23.80;95.60;;;;;;5033889;28;20017;-39
2022/05/15 07:16:18;;;;;;;18.35;3.58;;;23.70;95.60;;;;;;5042352;28;20037;-36
2022/05/15 07:18:44;;;;;;;13.30;3.38;;;23.60;95.40;;;;;;5040444;28;20017;-37
2022/05/15 07:21:09;;;;;;;15.82;4.45;;;23.00;96.10;;;;;;5049999;28;20537;-36
2022/05/15 07:23:35;;;;;;;11.00;3.00;;;22.70;96.50;;;;;;5052534;28;20027;-31
2022/05/15 07:26:02;;;;;;;12.57;3.35;;;22.40;96.90;;;;;;5050328;28;20013;-32
2022/05/15 07:28:28;;;;;;;10.05;3.53;;;22.10;96.70;;;;;;5032793;28;20045;-33
2022/05/15 07:30:53;;;;;;;10.27;3.78;;;21.70;96.60;;;;;;5037562;28;20440;-32
2022/05/15 07:33:26;;;;;;;13.40;2.70;;;21.20;97.40;;;;;;5048908;28;20465;-38
2022/05/15 07:35:54;;;;;;;10.45;3.58;;;21.00;98.10;;;;;;5043073;28;20490;-30
2022/05/15 07:38:20;;;;;;;20.35;3.45;;;20.80;98.30;;;;;;5033230;28;20018;-36
2022/05/15 07:40:47;;;;;;;18.85;3.60;;;20.90;98.10;;;;;;5049526;28;20044;-33
2022/05/15 07:43:14;;;;;;;14.25;3.95;;;20.90;98.50;;;;;;5051179;28;20142;-36
2022/05/15 07:45:40;;;;;;;11.07;3.50;;;20.90;98.80;;;;;;5037637;28;20533;-29
2022/05/15 07:48:06;;;;;;;15.20;3.50;;;20.90;98.70;;;;;;5051720;28;20021;-31
2022/05/15 07:50:33;;;;;;;14.87;3.97;;;21.00;98.50;;;;;;5041011;28;20025;-35
2022/05/15 07:52:59;;;;;;;19.05;3.88;;;21.10;98.00;;;;;;5039674;28;20279;-42
2022/05/15 07:55:24;;;;;;;13.82;3.70;;;21.50;97.80;;;;;;5041787;28;20466;-30
2022/05/15 07:57:50;;;;;;;14.15;3.80;;;21.80;97.40;;;;;;5055648;28;20017;-30
2022/05/15 08:00:17;;;;;;;14.75;3.67;;;22.00;97.20;;;;;;5052533;28;20056;-32
2022/05/15 08:02:44;;;;;;;7.60;2.70;;;22.10;97.50;;;;;;5034250;28;20033;-35
2022/05/15 08:08:05;;;;;;;12.68;3.95;;;22.40;97.50;;;;;;5038276;28;20096;-48
2022/05/15 08:10:35;;;;;;;16.02;3.47;;;22.50;96.90;;;;;;5038581;28;20032;-36
2022/05/15 08:13:02;;;;;;;12.32;3.83;;;22.50;97.30;;;;;;5044471;28;20029;-36
2022/05/15 08:15:28;;;;;;;13.03;4.17;;;22.70;97.10;;;;;;5051440;28;20441;-37
2022/05/15 08:17:54;;;;;;;9.65;2.92;;;22.80;96.90;;;;;;5049887;28;20370;-37
2022/05/15 08:25:50;;;;;;;9.55;2.80;;;23.10;96.50;;;;;;5035635;28;20037;-38
2022/05/15 08:28:16;;;;;;;15.13;3.45;;;23.40;96.50;;;;;;5039466;28;20052;-38
2022/05/15 08:30:42;;;;;;;11.98;3.67;;;23.90;95.60;;;;;;5055215;28;20031;-38
2022/05/15 08:33:10;;;;;;;9.00;3.10;;;24.20;95.20;;;;;;5052530;28;20074;-37
2022/05/15 08:35:35;;;;;;;6.38;2.70;;;24.20;95.40;;;;;;5046837;28;20078;-38
2022/05/15 08:38:01;;;;;;;15.32;3.55;;;24.20;95.30;;;;;;5039539;28;20044;-29
2022/05/15 08:40:34;;;;;;;7.90;2.53;;;24.90;94.80;;;;;;5049995;28;20033;-34
2022/05/15 08:43:02;;;;;;;16.00;4.18;;;25.10;94.80;;;;;;5037520;28;20087;-29
2022/05/15 08:45:33;;;;;;;11.02;3.38;;;25.60;93.70;;;;;;5038686;28;20490;-32
2022/05/15 08:48:06;;;;;;;12.40;2.75;;;26.30;93.00;;;;;;5054386;28;20025;-37
2022/05/15 08:50:41;;;;;;;10.68;2.97;;;26.30;93.20;;;;;;5041441;28;20033;-33
2022/05/15 08:53:14;;;;;;;9.68;3.10;;;26.60;92.10;;;;;;5035186;28;20083;-30
2022/05/15 08:55:42;;;;;;;14.68;3.47;;;26.70;92.40;;;;;;5034595;28;20025;-29
2022/05/15 08:58:35;;;;;;;15.32;3.97;;;26.30;92.90;;;;;;5039711;28;20028;-33
2022/05/15 09:01:03;;;;;;;12.73;3.55;;;26.60;91.90;;;;;;5044288;28;20164;-37
2022/05/15 09:03:33;;;;;;;9.73;3.15;;;26.90;91.70;;;;;;5052428;28;20488;-38
2022/05/15 09:06:19;;;;;;;6.30;3.28;;;26.60;91.80;;;;;;5046477;28;20478;-38
2022/05/15 09:09:06;;;;;;;7.00;3.15;;;26.60;92.00;;;;;;5042278;28;20469;-47
2022/05/15 09:11:32;;;;;;;;;;;26.80;92.10;;;;;;5053235;28;20489;-38
2022/05/15 09:14:12;;;;;;;11.90;4.10;;;27.50;90.50;;;;;;5054632;28;19912;-38
2022/05/15 09:16:42;;;;;;;10.75;3.20;;;27.70;90.50;;;;;;5041117;28;20028;-39
2022/05/15 09:19:08;;;;;;;15.48;3.50;;;27.80;90.40;;;;;;5054509;28;20044;-37
2022/05/15 09:21:34;;;;;;;12.05;3.50;;;27.80;90.60;;;;;;5053090;28;20064;-39
2022/05/15 09:24:16;;;;;;;18.10;3.87;;;28.10;90.00;;;;;;5051166;28;20029;-31
2022/05/15 09:26:44;;;;;;;13.60;3.05;;;28.80;87.20;;;;;;5054195;28;20767;-30
2022/05/15 09:29:20;;;;;;;12.52;3.75;;;28.60;86.20;;;;;;5050466;28;20037;-30
2022/05/15 09:31:46;;;;;;;9.77;3.28;;;27.90;88.00;;;;;;5052723;28;20374;-29
2022/05/15 09:34:32;;;;;;;10.05;3.53;;;27.30;88.20;;;;;;5037106;28;20036;-38
2022/05/15 09:39:45;;;;;;;14.20;4.00;;;27.50;88.90;;;;;;5040695;28;20036;-35
2022/05/15 09:45:07;;;;;;;10.80;2.65;;;27.70;88.40;;;;;;5033897;28;20076;-39
2022/05/15 09:47:36;;;;;;;12.02;3.42;;;27.70;88.70;;;;;;5039791;28;20052;-39
2022/05/15 09:50:04;;;;;;;5.57;2.65;;;27.70;85.70;;;;;;5052400;28;20496;-38
2022/05/15 09:52:34;;;;;;;6.13;3.15;;;27.60;86.00;;;;;;5045232;28;20544;-38
2022/05/15 09:55:21;;;;;;;8.25;3.25;;;27.40;87.20;;;;;;5038052;28;20030;-38
2022/05/15 09:57:59;;;;;;;9.18;2.38;;;27.40;87.60;;;;;;5033918;28;20053;-39
2022/05/15 10:00:28;;;;;;;11.23;3.42;;;27.50;87.00;;;;;;5049590;28;20044;-37
2022/05/15 10:03:03;;;;;;;12.80;3.28;;;27.20;87.50;;;;;;5053548;28;20051;-39
2022/05/15 10:05:32;;;;;;;9.35;2.63;;;27.20;87.50;;;;;;5048333;28;20033;-38
2022/05/15 10:08:19;;;;;;;8.88;2.92;;;27.50;87.20;;;;;;5050531;28;20047;-39
2022/05/15 10:10:58;;;;;;;8.93;2.85;;;27.40;87.60;;;;;;5043298;28;20086;-37
2022/05/15 10:13:42;;;;;;;9.20;2.80;;;27.80;86.10;;;;;;5051298;28;20056;-39
2022/05/15 10:16:17;;;;;;;6.32;2.40;;;28.00;87.20;;;;;;5050938;28;20033;-37
2022/05/15 10:19:02;;;;;;;7.30;2.95;;;28.20;86.30;;;;;;5053313;28;20021;-39
2022/05/15 10:21:40;;;;;;;9.93;2.90;;;28.40;84.60;;;;;;5045802;28;20516;-39
2022/05/15 10:24:14;;;;;;;12.60;3.90;;;28.30;84.80;;;;;;5043769;28;20288;-38
2022/05/15 10:26:58;;;;;;;11.93;3.72;;;28.30;85.10;;;;;;5033178;28;20541;-38
2022/05/15 10:29:49;;;;;;;12.98;3.45;;;28.20;85.00;;;;;;5033130;28;20501;-40
2022/05/15 10:32:17;;;;;;;10.63;3.30;;;27.70;85.70;;;;;;5053021;28;20025;-38
2022/05/15 10:34:43;;;;;;;7.53;2.67;;;27.20;86.90;;;;;;5051453;28;20032;-46
2022/05/15 10:37:30;;;;;;;6.57;2.22;;;27.50;86.60;;;;;;5050739;28;20747;-39
2022/05/15 10:40:23;;;;;;;11.40;3.28;;;27.50;85.70;;;;;;5044344;28;20064;-40
2022/05/15 10:43:07;;;;;;;9.52;2.60;;;27.90;84.50;;;;;;5039832;28;20121;-39
2022/05/15 10:45:41;;;;;;;9.35;2.97;;;28.00;84.30;;;;;;5049085;28;20037;-39
2022/05/15 10:48:34;;;;;;;11.15;2.28;;;27.90;83.60;;;;;;5046416;28;20060;-37
2022/05/15 10:51:19;;;;;;;5.30;2.40;;;27.50;84.90;;;;;;5044498;28;20025;-38
2022/05/15 10:59:44;;;;;;;6.15;2.50;;;27.20;84.70;;;;;;5037311;28;20168;-35
2022/05/15 11:02:30;;;;;;;11.30;2.63;;;27.10;84.50;;;;;;5044394;28;20451;-36
2022/05/15 11:05:05;;;;;;;;;;;26.90;84.20;;;;;;5035588;28;20029;-38
2022/05/15 11:07:49;;;;;;;6.07;2.25;;;26.80;84.60;;;;;;5044784;28;19913;-37
2022/05/15 11:10:22;;;;;;;3.60;1.83;;;26.70;82.60;;;;;;5032003;28;20028;-38
2022/05/15 11:13:12;;;;;;;7.80;2.13;;;26.60;82.80;;;;;;5034855;28;20521;-39
2022/05/15 11:15:47;;;;;;;12.05;4.05;;;26.40;83.40;;;;;;5037163;28;20507;-45
2022/05/15 11:18:41;;;;;;;5.97;1.98;;;26.40;84.80;;;;;;5034106;28;20033;-40
2022/05/15 11:21:30;;;;;;;6.95;2.53;;;26.30;84.10;;;;;;5041846;28;20017;-35
2022/05/15 11:24:31;;;;;;;11.82;2.78;;;26.30;83.50;;;;;;5043761;28;20044;-30
2022/05/15 11:27:05;;;;;;;4.65;1.83;;;26.30;82.80;;;;;;5035139;28;20048;-29
2022/05/15 11:29:35;;;;;;;9.00;2.03;;;26.50;82.60;;;;;;5035126;28;20111;-34
2022/05/15 11:32:01;;;;;;;7.40;2.58;;;26.60;81.10;;;;;;5035975;28;20036;-33
2022/05/15 11:35:04;;;;;;;6.57;2.00;;;26.60;80.80;;;;;;5036047;28;20027;-32
2022/05/15 11:37:39;;;;;;;8.77;1.63;;;26.60;80.60;;;;;;5036083;28;20144;-30
2022/05/15 11:40:28;;;;;;;8.88;1.63;;;26.60;81.50;;;;;;5035047;28;20033;-31
2022/05/15 11:42:54;;;;;;;7.60;1.85;;;26.60;81.50;;;;;;5046334;28;20370;-32
2022/05/15 11:45:29;;;;;;;7.47;1.83;;;26.90;81.70;;;;;;5039119;28;20028;-31
2022/05/15 11:48:20;;;;;;;7.88;2.13;;;27.00;80.30;;;;;;5034662;28;20552;-31
2022/05/15 11:51:02;;;;;;;4.95;1.73;;;27.10;81.50;;;;;;5035976;28;20096;-31
2022/05/15 11:53:35;;;;;;;10.45;1.75;;;27.10;82.70;;;;;;5055012;28;20041;-30
2022/05/15 11:56:21;;;;;;;8.65;1.75;;;27.30;80.90;;;;;;5039496;28;20025;-31
2022/05/15 11:59:01;;;;;;;4.13;1.70;;;27.50;79.90;;;;;;5050491;28;20512;-33
2022/05/15 12:01:36;;;;;;;8.60;1.98;;;27.60;80.40;;;;;;5043860;28;20040;-31
2022/05/15 12:04:41;;;;;;;12.65;1.90;;;27.60;80.40;;;;;;5048252;28;20481;-32
2022/05/15 12:07:07;;;;;;;5.55;1.83;;;27.60;78.70;;;;;;5036729;28;20491;-29
2022/05/15 12:09:41;;;;;;;10.93;2.10;;;27.60;79.60;;;;;;5044286;28;20148;-33
2022/05/15 12:12:30;;;;;;;9.10;2.35;;;27.60;80.40;;;;;;5034913;28;20044;-30
2022/05/15 12:15:16;;;;;;;4.93;1.33;;;27.80;79.40;;;;;;5039167;28;20033;-31
2022/05/15 12:17:54;;;;;;;8.15;1.67;;;28.00;79.50;;;;;;5033790;28;20033;-30
2022/05/15 12:20:42;;;;;;;6.40;1.80;;;28.00;77.80;;;;;;5034876;28;20485;-33
2022/05/15 12:23:32;;;;;;;12.30;2.08;;;27.90;77.60;;;;;;5037795;28;20109;-32
2022/05/15 12:26:10;;;;;;;6.63;1.67;;;27.60;77.70;;;;;;5041824;28;20023;-30
2022/05/15 12:28:52;;;;;;;7.65;1.45;;;27.50;77.40;;;;;;5035143;28;20049;-31
2022/05/15 12:31:39;;;;;;;5.03;1.98;;;27.40;77.50;;;;;;5054305;28;20405;-30
2022/05/15 12:34:19;;;;;;;5.55;1.23;;;27.20;78.60;;;;;;5048397;28;20044;-29
2022/05/15 12:36:59;;;;;;;6.43;1.60;;;27.50;77.30;;;;;;5047010;28;21171;-34
2022/05/15 12:39:28;;;;;;;10.57;2.45;;;27.60;78.30;;;;;;5037627;28;20738;-32
2022/05/15 12:42:00;;;;;;;5.93;1.70;;;27.70;78.20;;;;;;5046275;28;20473;-43
2022/05/15 12:44:35;;;;;;;10.75;1.83;;;27.70;76.80;;;;;;5051843;28;20485;-38
2022/05/15 12:47:04;;;;;;;2.60;1.52;;;27.90;77.20;;;;;;5047728;28;20044;-40
2022/05/15 12:49:42;;;;;;;4.28;1.75;;;27.90;75.20;;;;;;5034996;28;20458;-37
2022/05/15 12:52:24;;;;;;;5.03;1.38;;;27.90;75.40;;;;;;5039247;28;20025;-37
2022/05/15 12:54:58;;;;;;;8.27;2.13;;;27.80;76.50;;;;;;5034226;28;20026;-43
2022/05/15 12:57:25;;;;;;;3.85;1.65;;;27.70;76.20;;;;;;5038840;28;20020;-39
2022/05/15 12:59:52;;;;;;;8.18;1.55;;;27.80;76.90;;;;;;5054534;28;20473;-38
2022/05/15 13:02:35;;;;;;;13.32;2.38;;;27.80;75.90;;;;;;5043881;28;20033;-39
2022/05/15 13:05:07;;;;;;;7.88;2.22;;;27.80;76.00;;;;;;5036484;28;20034;-37
2022/05/15 13:07:39;;;;;;;9.88;2.33;;;27.70;77.30;;;;;;5043774;28;20102;-38
2022/05/15 13:10:09;;;;;;;6.38;2.30;;;27.70;77.00;;;;;;5054590;28;20369;-38
2022/05/15 13:12:48;;;;;;;7.82;1.80;;;27.80;77.30;;;;;;5054634;28;20554;-39
2022/05/15 13:15:18;;;;;;;7.80;2.05;;;27.90;77.40;;;;;;5037323;28;20104;-39
2022/05/15 13:17:44;;;;;;;4.57;2.05;;;27.80;77.40;;;;;;5047761;28;20071;-38
2022/05/15 13:20:15;;;;;;;6.57;1.55;;;27.80;77.10;;;;;;5054045;28;20553;-44
2022/05/15 13:22:41;;;;;;;8.57;2.42;;;27.80;78.40;;;;;;5043620;28;20473;-37